createdAt,value
2023-04-09T00:02:10.979Z,10.23
2023-04-09T00:04:37.647Z,10.14
2023-04-09T00:07:04.201Z,10.05
2023-04-09T00:09:30.996Z,9.95
2023-04-09T00:11:58.285Z,9.84
2023-04-09T00:14:24.971Z,9.76
2023-04-09T00:16:51.512Z,9.68
2023-04-09T00:19:18.025Z,9.61
2023-04-09T00:21:44.574Z,9.54
2023-04-09T00:24:11.275Z,9.47
2023-04-09T00:26:37.860Z,9.44
2023-04-09T00:29:04.398Z,9.40
2023-04-09T00:31:30.994Z,9.34
2023-04-09T00:33:57.550Z,9.29
2023-04-09T00:36:25.922Z,9.25
2023-04-09T00:38:54.197Z,9.19
2023-04-09T00:41:20.922Z,9.13
2023-04-09T00:43:47.449Z,9.06
2023-04-09T00:46:14.609Z,9.01
2023-04-09T00:48:41.839Z,8.96
2023-04-09T00:51:08.960Z,8.93
2023-04-09T00:53:35.611Z,8.92
2023-04-09T00:56:02.985Z,8.89
2023-04-09T00:58:29.722Z,8.84
2023-04-09T01:00:56.442Z,8.80
2023-04-09T01:03:23.529Z,8.76
2023-04-09T01:06:03.412Z,8.72
2023-04-09T01:08:32.971Z,8.67
2023-04-09T01:11:10.043Z,8.62
2023-04-09T01:13:53.450Z,8.58
2023-04-09T01:16:24.279Z,8.57
2023-04-09T01:18:56.551Z,8.58
2023-04-09T01:21:27.559Z,8.58
2023-04-09T01:24:06.945Z,8.56
2023-04-09T01:27:01.576Z,8.51
2023-04-09T01:29:33.429Z,8.54
2023-04-09T01:32:03.101Z,8.55
2023-04-09T01:34:31.061Z,8.58
2023-04-09T01:37:00.792Z,8.58
2023-04-09T01:39:27.648Z,8.55
2023-04-09T01:41:56.240Z,8.50
2023-04-09T01:44:24.559Z,8.47
2023-04-09T01:46:51.879Z,8.43
2023-04-09T01:49:18.831Z,8.40
2023-04-09T01:51:46.000Z,8.39
2023-04-09T01:54:12.588Z,8.40
2023-04-09T01:56:47.858Z,8.37
2023-04-09T01:59:14.988Z,8.36
2023-04-09T02:01:47.072Z,8.34
2023-04-09T02:04:19.256Z,8.31
2023-04-09T02:06:45.668Z,8.23
2023-04-09T02:09:13.341Z,8.26
2023-04-09T02:11:42.243Z,8.28
2023-04-09T02:14:11.301Z,8.26
2023-04-09T02:16:39.927Z,8.31
2023-04-09T02:19:06.519Z,8.32
2023-04-09T02:21:33.274Z,8.35
2023-04-09T02:23:59.832Z,8.38
2023-04-09T02:26:26.461Z,8.40
2023-04-09T02:28:53.270Z,8.40
2023-04-09T02:31:20.108Z,8.43
2023-04-09T02:33:46.683Z,8.47
2023-04-09T02:36:13.848Z,8.51
2023-04-09T02:38:42.047Z,8.54
2023-04-09T02:41:09.307Z,8.56
2023-04-09T02:43:36.085Z,8.56
2023-04-09T02:46:02.872Z,8.58
2023-04-09T02:48:29.506Z,8.58
2023-04-09T02:50:57.439Z,8.56
2023-04-09T02:53:24.078Z,8.55
2023-04-09T02:55:50.610Z,8.56
2023-04-09T02:58:17.155Z,8.55
2023-04-09T03:00:43.667Z,8.55
2023-04-09T03:03:10.702Z,8.51
2023-04-09T03:05:38.063Z,8.49
2023-04-09T03:08:04.742Z,8.48
2023-04-09T03:10:31.424Z,8.44
2023-04-09T03:12:57.914Z,8.40
2023-04-09T03:15:24.422Z,8.35
2023-04-09T03:17:51.220Z,8.31
2023-04-09T03:20:17.790Z,8.28
2023-04-09T03:22:44.340Z,8.26
2023-04-09T03:25:10.975Z,8.26
2023-04-09T03:27:37.549Z,8.23
2023-04-09T03:30:04.504Z,8.22
2023-04-09T03:32:31.254Z,8.24
2023-04-09T03:34:57.822Z,8.22
2023-04-09T03:37:24.320Z,8.18
2023-04-09T03:39:50.931Z,8.14
2023-04-09T03:42:17.484Z,8.11
2023-04-09T03:44:43.987Z,8.06
2023-04-09T03:47:10.657Z,8.02
2023-04-09T03:49:37.340Z,7.99
2023-04-09T03:52:03.975Z,7.94
2023-04-09T03:54:30.991Z,7.88
2023-04-09T03:56:57.618Z,7.81
2023-04-09T03:59:24.753Z,7.74
2023-04-09T04:01:51.783Z,7.69
2023-04-09T04:04:19.900Z,7.65
2023-04-09T04:06:47.738Z,7.60
2023-04-09T04:09:14.448Z,7.57
2023-04-09T04:11:40.986Z,7.53
2023-04-09T04:14:07.510Z,7.49
2023-04-09T04:16:34.093Z,7.45
2023-04-09T04:19:00.725Z,7.43
2023-04-09T04:21:27.303Z,7.40
2023-04-09T04:23:53.843Z,7.42
2023-04-09T04:26:20.427Z,7.42
2023-04-09T04:28:47.019Z,7.41
2023-04-09T04:31:13.651Z,7.39
2023-04-09T04:33:41.758Z,7.38
2023-04-09T04:36:10.444Z,7.37
2023-04-09T04:38:37.296Z,7.37
2023-04-09T04:41:04.036Z,7.37
2023-04-09T04:43:31.452Z,7.39
2023-04-09T04:45:58.165Z,7.39
2023-04-09T04:48:24.934Z,7.38
2023-04-09T04:50:57.032Z,7.38
2023-04-09T04:53:23.683Z,7.37
2023-04-09T04:55:50.545Z,7.53
2023-04-09T04:58:17.452Z,8.06
2023-04-09T05:00:44.235Z,8.73
2023-04-09T05:03:11.261Z,9.11
2023-04-09T05:05:37.827Z,9.43
2023-04-09T05:08:04.615Z,9.70
2023-04-09T05:10:31.270Z,9.92
2023-04-09T05:12:57.822Z,9.81
2023-04-09T05:16:10.409Z,9.47
2023-04-09T05:18:36.952Z,9.11
2023-04-09T05:21:03.544Z,8.92
2023-04-09T05:23:30.087Z,8.80
2023-04-09T05:25:56.615Z,8.70
2023-04-09T05:28:23.185Z,8.62
2023-04-09T05:30:49.792Z,8.56
2023-04-09T05:33:16.432Z,8.49
2023-04-09T05:35:43.013Z,8.42
2023-04-09T05:38:09.564Z,8.37
2023-04-09T05:40:36.428Z,8.32
2023-04-09T05:43:02.987Z,8.27
2023-04-09T05:45:29.553Z,8.22
2023-04-09T05:47:56.698Z,8.16
2023-04-09T05:50:23.696Z,8.13
2023-04-09T05:52:50.459Z,8.11
2023-04-09T05:55:17.107Z,8.08
2023-04-09T05:57:45.412Z,8.05
2023-04-09T06:00:13.465Z,8.06
2023-04-09T06:02:40.074Z,8.07
2023-04-09T06:05:06.884Z,8.09
2023-04-09T06:07:33.596Z,8.11
2023-04-09T06:10:00.328Z,8.15
2023-04-09T06:12:26.829Z,8.17
2023-04-09T06:14:53.353Z,8.18
2023-04-09T06:17:19.945Z,8.23
2023-04-09T06:19:46.550Z,8.26
2023-04-09T06:22:13.124Z,8.32
2023-04-09T06:24:39.679Z,8.36
2023-04-09T06:27:06.695Z,8.41
2023-04-09T06:29:33.301Z,8.48
2023-04-09T06:31:59.796Z,8.57
2023-04-09T06:34:26.308Z,8.60
2023-04-09T06:36:52.945Z,8.62
2023-04-09T06:39:19.497Z,8.66
2023-04-09T06:41:46.599Z,8.70
2023-04-09T06:44:13.718Z,8.82
2023-04-09T06:46:40.660Z,8.93
2023-04-09T06:49:07.221Z,9.08
2023-04-09T06:51:33.833Z,9.24
2023-04-09T06:54:00.441Z,9.36
2023-04-09T06:56:27.046Z,9.43
2023-04-09T06:58:53.674Z,9.50
2023-04-09T07:01:20.539Z,9.57
2023-04-09T07:03:47.203Z,9.63
2023-04-09T07:06:13.824Z,9.65
2023-04-09T07:08:40.540Z,9.68
2023-04-09T07:11:07.266Z,9.67
2023-04-09T07:13:34.038Z,9.72
2023-04-09T07:16:00.680Z,9.75
2023-04-09T07:18:27.379Z,9.84
2023-04-09T07:20:53.927Z,9.89
2023-04-09T07:23:20.567Z,9.90
2023-04-09T07:25:47.328Z,9.94
2023-04-09T07:28:14.029Z,10.03
2023-04-09T07:30:41.220Z,10.10
2023-04-09T07:33:07.816Z,10.11
2023-04-09T07:35:34.837Z,10.15
2023-04-09T07:38:01.469Z,10.23
2023-04-09T07:40:28.203Z,10.29
2023-04-09T07:42:55.720Z,10.38
2023-04-09T07:45:22.259Z,10.44
2023-04-09T07:47:48.814Z,10.51
2023-04-09T07:50:15.949Z,10.53
2023-04-09T07:52:42.788Z,10.56
2023-04-09T07:55:09.495Z,10.63
2023-04-09T07:57:36.916Z,10.72
2023-04-09T08:00:04.377Z,10.76
2023-04-09T08:02:31.236Z,10.86
2023-04-09T08:04:58.303Z,10.97
2023-04-09T08:07:24.930Z,11.02
2023-04-09T08:09:51.428Z,11.07
2023-04-09T08:12:18.027Z,11.16
2023-04-09T08:14:44.587Z,11.16
2023-04-09T08:17:11.207Z,11.24
2023-04-09T08:19:39.773Z,11.35
2023-04-09T08:22:07.733Z,11.42
2023-04-09T08:24:34.825Z,11.45
2023-04-09T08:27:01.998Z,11.49
2023-04-09T08:29:28.559Z,11.58
2023-04-09T08:31:55.192Z,11.68
2023-04-09T08:34:22.200Z,11.78
2023-04-09T08:36:49.942Z,11.88
2023-04-09T08:39:20.850Z,11.98
2023-04-09T08:41:48.397Z,12.09
2023-04-09T08:44:14.993Z,12.16
2023-04-09T08:46:42.065Z,12.26
2023-04-09T08:49:10.883Z,12.37
2023-04-09T08:51:37.466Z,12.43
2023-04-09T08:54:05.056Z,12.46
2023-04-09T08:56:32.582Z,12.54
2023-04-09T08:58:59.344Z,12.67
2023-04-09T09:01:28.040Z,12.81
2023-04-09T09:03:59.090Z,12.87
2023-04-09T09:06:29.340Z,12.88
2023-04-09T09:09:05.494Z,12.87
2023-04-09T09:11:33.484Z,12.93
2023-04-09T09:14:10.832Z,13.02
2023-04-09T09:16:43.199Z,13.09
2023-04-09T09:19:31.126Z,13.20
2023-04-09T09:22:01.826Z,13.37
2023-04-09T09:24:28.630Z,13.48
2023-04-09T09:26:55.836Z,13.62
2023-04-09T09:29:22.572Z,13.64
2023-04-09T09:31:51.977Z,13.67
2023-04-09T09:34:21.115Z,13.63
2023-04-09T09:36:48.021Z,13.67
2023-04-09T09:39:17.424Z,13.71
2023-04-09T09:41:45.282Z,13.84
2023-04-09T09:44:13.421Z,13.99
2023-04-09T09:46:42.357Z,14.16
2023-04-09T09:49:09.605Z,14.28
2023-04-09T09:51:39.234Z,14.41
2023-04-09T09:54:07.825Z,14.53
2023-04-09T09:56:39.687Z,14.59
2023-04-09T09:59:23.636Z,14.71
2023-04-09T10:01:59.961Z,14.87
2023-04-09T10:04:29.793Z,14.97
2023-04-09T10:06:57.627Z,15.11
2023-04-09T10:09:28.132Z,15.25
2023-04-09T10:11:56.028Z,15.41
2023-04-09T10:14:23.193Z,15.54
2023-04-09T10:16:49.857Z,15.69
2023-04-09T10:19:17.130Z,15.62
2023-04-09T10:22:21.459Z,15.29
2023-04-09T10:24:48.385Z,15.32
2023-04-09T10:27:17.365Z,15.43
2023-04-09T10:29:49.059Z,15.49
2023-04-09T10:32:28.479Z,15.64
2023-04-09T10:35:01.686Z,15.87
2023-04-09T10:37:28.762Z,15.98
2023-04-09T10:39:56.582Z,16.17
2023-04-09T10:42:42.079Z,16.36
2023-04-09T10:45:16.821Z,16.59
2023-04-09T10:47:44.318Z,16.78
2023-04-09T10:50:24.103Z,16.82
2023-04-09T10:52:56.627Z,16.91
2023-04-09T10:55:39.125Z,17.02
2023-04-09T10:58:12.350Z,17.01
2023-04-09T11:00:41.826Z,16.93
2023-04-09T11:03:22.258Z,16.68
2023-04-09T11:05:52.639Z,16.58
2023-04-09T11:08:19.538Z,16.57
2023-04-09T11:10:49.775Z,16.61
2023-04-09T11:13:20.074Z,16.66
2023-04-09T11:15:46.742Z,16.64
2023-04-09T11:18:24.518Z,16.60
2023-04-09T11:20:55.367Z,16.67
2023-04-09T11:23:22.127Z,16.77
2023-04-09T11:25:51.148Z,16.86
2023-04-09T11:28:18.750Z,16.81
2023-04-09T11:30:46.945Z,16.84
2023-04-09T11:33:14.178Z,16.98
2023-04-09T11:35:40.982Z,17.06
2023-04-09T11:38:09.187Z,17.09
2023-04-09T11:40:36.405Z,17.09
2023-04-09T11:43:03.260Z,16.99
2023-04-09T11:45:31.720Z,16.93
2023-04-09T11:47:58.919Z,16.97
2023-04-09T11:50:25.844Z,17.03
2023-04-09T11:52:52.652Z,17.08
2023-04-09T11:55:26.933Z,17.13
2023-04-09T11:57:57.493Z,17.19
2023-04-09T12:00:25.112Z,17.27
2023-04-09T12:02:59.722Z,17.27
2023-04-09T12:05:30.636Z,17.22
2023-04-09T12:08:07.544Z,17.16
2023-04-09T12:10:38.119Z,17.13
2023-04-09T12:13:10.493Z,17.19
2023-04-09T12:15:41.003Z,17.26
2023-04-09T12:18:12.409Z,17.37
2023-04-09T12:20:40.017Z,17.37
2023-04-09T12:23:08.291Z,17.28
2023-04-09T12:25:39.251Z,17.14
2023-04-09T12:28:07.498Z,17.22
2023-04-09T12:30:35.424Z,17.44
2023-04-09T12:33:03.488Z,17.80
2023-04-09T12:35:30.426Z,18.08
2023-04-09T12:37:57.235Z,18.15
2023-04-09T12:40:23.757Z,18.09
2023-04-09T12:42:50.350Z,18.20
2023-04-09T12:45:18.950Z,18.41
2023-04-09T12:47:46.019Z,18.40
2023-04-09T12:50:15.023Z,18.33
2023-04-09T12:52:42.195Z,18.32
2023-04-09T12:55:09.288Z,18.19
2023-04-09T12:57:37.375Z,18.03
2023-04-09T13:00:05.931Z,17.90
2023-04-09T13:02:32.670Z,17.81
2023-04-09T13:04:59.405Z,17.78
2023-04-09T13:07:29.192Z,17.72
2023-04-09T13:09:56.807Z,17.66
2023-04-09T13:12:24.140Z,17.77
2023-04-09T13:14:53.673Z,18.01
2023-04-09T13:17:20.630Z,18.22
2023-04-09T13:19:47.384Z,18.29
2023-04-09T13:22:14.035Z,18.53
2023-04-09T13:24:40.798Z,18.79
2023-04-09T13:27:09.672Z,18.96
2023-04-09T13:29:36.658Z,19.14
2023-04-09T13:32:07.174Z,19.24
2023-04-09T13:34:35.124Z,19.34
2023-04-09T13:37:04.993Z,19.52
2023-04-09T13:39:31.530Z,19.78
2023-04-09T13:41:58.249Z,19.97
2023-04-09T13:44:25.799Z,20.17
2023-04-09T13:46:52.800Z,20.40
2023-04-09T13:49:19.458Z,20.44
2023-04-09T13:51:46.692Z,20.68
2023-04-09T13:54:13.457Z,20.95
2023-04-09T13:56:40.492Z,21.27
2023-04-09T13:59:07.199Z,21.36
2023-04-09T14:01:34.463Z,21.63
2023-04-09T14:04:01.387Z,22.09
2023-04-09T14:06:28.105Z,22.43
2023-04-09T14:08:55.907Z,22.71
2023-04-09T14:11:22.548Z,23.06
2023-04-09T14:13:49.146Z,23.43
2023-04-09T14:16:15.830Z,23.94
2023-04-09T14:18:42.441Z,24.35
2023-04-09T14:21:10.325Z,24.78
2023-04-09T14:23:39.701Z,25.09
2023-04-09T14:26:07.028Z,25.16
2023-04-09T14:28:33.763Z,25.44
2023-04-09T14:31:00.622Z,25.69
2023-04-09T14:33:27.636Z,25.78
2023-04-09T14:35:54.404Z,25.50
2023-04-09T14:38:20.951Z,25.73
2023-04-09T14:40:47.539Z,26.12
2023-04-09T14:43:14.135Z,26.60
2023-04-09T14:45:40.671Z,26.86
2023-04-09T14:48:07.283Z,26.99
2023-04-09T14:50:34.295Z,27.15
2023-04-09T14:53:01.476Z,27.15
2023-04-09T14:55:28.340Z,27.05
2023-04-09T14:57:55.000Z,27.01
2023-04-09T15:00:22.701Z,26.74
2023-04-09T15:02:49.502Z,26.74
2023-04-09T15:05:16.231Z,26.81
2023-04-09T15:07:43.816Z,26.61
2023-04-09T15:10:11.025Z,26.43
2023-04-09T15:12:37.611Z,26.51
2023-04-09T15:15:08.850Z,26.79
2023-04-09T15:17:35.799Z,27.18
2023-04-09T15:20:02.422Z,27.57
2023-04-09T15:22:29.011Z,27.40
2023-04-09T15:24:55.724Z,26.93
2023-04-09T15:27:22.316Z,26.85
2023-04-09T15:29:48.951Z,27.19
2023-04-09T15:32:15.529Z,27.50
2023-04-09T15:34:42.128Z,27.68
2023-04-09T15:37:08.664Z,27.86
2023-04-09T15:39:35.409Z,27.69
2023-04-09T15:42:02.074Z,27.60
2023-04-09T15:44:28.885Z,27.51
2023-04-09T15:46:56.199Z,27.33
2023-04-09T15:49:23.333Z,27.40
2023-04-09T15:51:49.908Z,27.34
2023-04-09T15:54:16.654Z,27.20
2023-04-09T15:56:43.253Z,27.35
2023-04-09T15:59:10.074Z,27.45
2023-04-09T16:01:36.979Z,27.44
2023-04-09T16:04:04.783Z,27.45
2023-04-09T16:06:31.937Z,27.43
2023-04-09T16:08:58.673Z,27.41
2023-04-09T16:11:26.044Z,27.18
2023-04-09T16:13:52.779Z,27.02
2023-04-09T16:16:19.669Z,26.92
2023-04-09T16:18:46.311Z,26.81
2023-04-09T16:21:13.080Z,26.40
2023-04-09T16:23:39.940Z,26.07
2023-04-09T16:26:07.016Z,25.99
2023-04-09T16:28:33.754Z,26.06
2023-04-09T16:31:00.455Z,26.39
2023-04-09T16:33:27.089Z,26.57
2023-04-09T16:35:53.666Z,26.82
2023-04-09T16:38:20.308Z,26.73
2023-04-09T16:40:46.967Z,26.28
2023-04-09T16:43:13.500Z,25.66
2023-04-09T16:48:24.670Z,23.81
2023-04-09T16:50:51.217Z,22.99
2023-04-09T16:53:17.968Z,22.28
2023-04-09T16:55:44.913Z,21.62
2023-04-09T16:58:11.521Z,21.05
2023-04-09T17:00:40.021Z,20.51
2023-04-09T17:03:06.897Z,20.07
2023-04-09T17:05:33.835Z,19.72
2023-04-09T17:08:01.167Z,19.39
2023-04-09T17:10:27.986Z,19.10
2023-04-09T17:12:54.811Z,18.81
2023-04-09T17:15:22.682Z,18.61
2023-04-09T17:17:51.341Z,18.44
2023-04-09T17:20:18.085Z,18.27
2023-04-09T17:22:44.677Z,18.13
2023-04-09T17:25:11.498Z,18.00
2023-04-09T17:27:38.028Z,17.87
2023-04-09T17:30:05.163Z,17.76
2023-04-09T17:32:31.914Z,17.67
2023-04-09T17:34:59.659Z,17.55
2023-04-09T17:37:28.689Z,17.42
2023-04-09T17:39:55.508Z,17.32
2023-04-09T17:42:23.341Z,17.22
2023-04-09T17:44:49.873Z,17.04
2023-04-09T17:47:17.041Z,16.87
2023-04-09T17:49:43.793Z,16.70
2023-04-09T17:52:10.354Z,16.54
2023-04-09T17:54:38.103Z,16.40
2023-04-09T17:57:07.235Z,16.29
2023-04-09T17:59:37.020Z,16.13
2023-04-09T18:02:03.823Z,15.98
2023-04-09T18:04:31.642Z,15.80
2023-04-09T18:06:58.439Z,15.66
2023-04-09T18:09:25.022Z,15.50
2023-04-09T18:11:56.259Z,15.36
2023-04-09T18:14:23.020Z,15.19
2023-04-09T18:16:49.795Z,15.04
2023-04-09T18:19:16.593Z,14.88
2023-04-09T18:21:43.152Z,14.70
2023-04-09T18:24:09.702Z,14.54
2023-04-09T18:26:36.704Z,14.39
2023-04-09T18:29:03.372Z,14.24
2023-04-09T18:31:29.975Z,14.09
2023-04-09T18:33:56.573Z,13.96
2023-04-09T18:36:23.436Z,13.83
2023-04-09T18:38:49.997Z,13.74
2023-04-09T18:41:26.607Z,13.64
2023-04-09T18:43:53.938Z,13.58
2023-04-09T18:46:20.524Z,13.48
2023-04-09T18:48:47.148Z,13.42
2023-04-09T18:51:14.552Z,13.35
2023-04-09T18:53:42.053Z,13.28
2023-04-09T18:56:09.129Z,13.17
2023-04-09T18:58:36.351Z,13.09
2023-04-09T19:01:11.209Z,12.98
2023-04-09T19:03:38.629Z,12.89
2023-04-09T19:06:19.685Z,12.80
2023-04-09T19:08:47.915Z,12.75
2023-04-09T19:11:15.218Z,12.68
2023-04-09T19:13:41.848Z,12.59
2023-04-09T19:16:12.361Z,12.51
2023-04-09T19:18:38.951Z,12.42
2023-04-09T19:21:07.487Z,12.34
2023-04-09T19:23:34.597Z,12.26
2023-04-09T19:26:02.328Z,12.19
2023-04-09T19:28:29.108Z,12.12
2023-04-09T19:30:55.738Z,12.05
2023-04-09T19:33:24.312Z,12.00
2023-04-09T19:35:51.674Z,11.92
2023-04-09T19:38:19.034Z,11.85
2023-04-09T19:40:46.437Z,11.79
2023-04-09T19:43:13.841Z,11.74
2023-04-09T19:45:42.452Z,11.68
2023-04-09T19:48:09.187Z,11.60
2023-04-09T19:50:46.547Z,11.55
2023-04-09T19:53:13.170Z,11.48
2023-04-09T19:55:39.743Z,11.41
2023-04-09T19:58:06.928Z,11.35
2023-04-09T20:00:34.105Z,11.30
2023-04-09T20:03:01.186Z,11.22
2023-04-09T20:05:27.845Z,11.17
2023-04-09T20:07:54.808Z,11.10
2023-04-09T20:10:21.566Z,11.05
2023-04-09T20:12:49.672Z,11.01
2023-04-09T20:15:19.938Z,10.94
2023-04-09T20:17:48.409Z,10.89
2023-04-09T20:20:17.917Z,10.86
2023-04-09T20:22:47.507Z,10.80
2023-04-09T20:25:14.201Z,10.74
2023-04-09T20:27:41.090Z,10.69
2023-04-09T20:30:08.302Z,10.62
2023-04-09T20:32:36.928Z,10.59
2023-04-09T20:35:04.705Z,10.52
2023-04-09T20:37:31.269Z,10.46
2023-04-09T20:39:59.452Z,10.42
2023-04-09T20:42:26.258Z,10.40
2023-04-09T20:44:53.222Z,10.38
2023-04-09T20:47:21.107Z,10.35
2023-04-09T20:49:49.028Z,10.30
2023-04-09T20:52:15.563Z,10.26
2023-04-09T20:54:43.061Z,10.22
2023-04-09T20:57:11.061Z,10.17
2023-04-09T20:59:39.429Z,10.14
2023-04-09T21:02:06.122Z,10.12
2023-04-09T21:04:32.931Z,10.07
2023-04-09T21:06:59.478Z,10.03
2023-04-09T21:09:26.195Z,10.00
2023-04-09T21:11:52.739Z,9.98
2023-04-09T21:14:19.264Z,9.94
2023-04-09T21:16:45.991Z,9.89
2023-04-09T21:19:12.537Z,9.86
2023-04-09T21:21:39.114Z,9.86
2023-04-09T21:24:05.704Z,9.87
2023-04-09T21:26:48.691Z,9.89
2023-04-09T21:29:17.250Z,9.88
2023-04-09T21:31:43.851Z,9.86
2023-04-09T21:34:10.411Z,9.81
2023-04-09T21:36:39.260Z,9.77
2023-04-09T21:39:05.963Z,9.75
2023-04-09T21:41:32.539Z,9.68
2023-04-09T21:44:03.465Z,9.65
2023-04-09T21:46:30.072Z,9.61
2023-04-09T21:48:56.842Z,9.58
2023-04-09T21:51:23.421Z,9.54
2023-04-09T21:53:50.183Z,9.49
2023-04-09T21:56:16.722Z,9.46
2023-04-09T21:58:43.340Z,9.43
2023-04-09T22:01:22.437Z,9.41
2023-04-09T22:03:54.935Z,9.37
2023-04-09T22:06:21.478Z,9.35
2023-04-09T22:08:55.345Z,9.29
2023-04-09T22:11:28.386Z,9.23
2023-04-09T22:13:56.785Z,9.23
2023-04-09T22:16:24.078Z,9.21
2023-04-09T22:18:51.528Z,9.17
2023-04-09T22:21:18.432Z,9.15
2023-04-09T22:23:45.411Z,9.11
2023-04-09T22:26:11.988Z,9.07
2023-04-09T22:28:38.653Z,9.04
2023-04-09T22:31:05.955Z,8.99
2023-04-09T22:33:32.860Z,8.94
2023-04-09T22:35:59.697Z,8.91
2023-04-09T22:38:26.544Z,8.86
2023-04-09T22:40:53.224Z,8.79
2023-04-09T22:43:19.830Z,8.75
2023-04-09T22:45:54.302Z,8.74
2023-04-09T22:48:22.043Z,8.73
2023-04-09T22:50:49.479Z,8.72
2023-04-09T22:53:19.405Z,8.68
2023-04-09T22:55:54.509Z,8.64
2023-04-09T22:58:21.277Z,8.62
2023-04-09T23:00:48.238Z,8.61
2023-04-09T23:03:15.103Z,8.62
2023-04-09T23:05:42.238Z,8.62
2023-04-09T23:08:09.214Z,8.57
2023-04-09T23:10:36.161Z,8.57
2023-04-09T23:13:02.855Z,8.56
2023-04-09T23:15:29.540Z,8.54
2023-04-09T23:17:56.292Z,8.51
2023-04-09T23:20:23.358Z,8.50
2023-04-09T23:22:50.424Z,8.49
2023-04-09T23:25:17.378Z,8.51
2023-04-09T23:27:44.387Z,8.50
2023-04-09T23:30:11.670Z,8.47
2023-04-09T23:32:38.294Z,8.43
2023-04-09T23:35:05.610Z,8.41
2023-04-09T23:37:32.177Z,8.38
2023-04-09T23:39:58.731Z,8.35
2023-04-09T23:42:26.870Z,8.33
2023-04-09T23:44:53.371Z,8.31
2023-04-09T23:47:19.875Z,8.30
2023-04-09T23:49:46.808Z,8.30
2023-04-09T23:52:13.362Z,8.28
2023-04-09T23:54:48.984Z,8.25
2023-04-09T23:57:15.531Z,8.23
2023-04-09T23:59:42.047Z,8.20
